ENBR

Bergen , Flesland Airport

Bergen, Norway
METAR ENBR 170150Z 19003KT CAVOK M05/M06 Q1014 RMK WIND 1200FT VRB03KT
Observed Flight Rules
Dec-17 @ 01:50 UTC (35 minutes ago) Visual Flight Rules
Wind Visibility Clouds
190° at 3 knots 10,000+ meters
  • Clear skies
Temperatures Readings
Current -5°C / 23°F
Dewpoint -6°C / 21°F
Humidity 93%
Altimeter 29.94" Hg
Pressure 1014 hPa
Elevation 50
METAR ENBR 170150Z 19003KT CAVOK M05/M06 Q1014 RMK WIND 1200FT VRB03KT
Observed Flight Rules
Dec-17 @ 01:50 UTC
(35 minutes ago)
VFR
Wind Visibility
190° at 3 knots 10,000+ meters
Clouds
  • Clear skies
Temperature Dewpoint
-5°C / 23°F -6°C / 21°F
Humidity Altimeter Pressure
93% 29.94" Hg 1014 hPa